createdAt,value
2018-05-10T00:00:38.401Z,99236.42
2018-05-10T00:03:06.060Z,99236.85
2018-05-10T00:05:33.726Z,99230.52
2018-05-10T00:08:01.489Z,99240.61
2018-05-10T00:10:29.253Z,99238.84
2018-05-10T00:12:56.907Z,99229.28
2018-05-10T00:15:24.572Z,99230.65
2018-05-10T00:17:52.342Z,99231.35
2018-05-10T00:20:20.004Z,99233.44
2018-05-10T00:22:47.760Z,99227.84
2018-05-10T00:25:15.533Z,99224.43
2018-05-10T00:27:43.400Z,99228.36
2018-05-10T00:30:11.051Z,99222.77
2018-05-10T00:32:38.826Z,99225.50
2018-05-10T00:35:06.591Z,99226.14
2018-05-10T00:37:34.254Z,99228.20
2018-05-10T00:40:02.017Z,99223.22
2018-05-10T00:42:29.782Z,99226.97
2018-05-10T00:44:57.548Z,99220.23
2018-05-10T00:47:25.311Z,99225.09
2018-05-10T00:49:53.015Z,99220.65
2018-05-10T00:52:20.738Z,99232.88
2018-05-10T00:54:58.127Z,99229.45
2018-05-10T00:57:25.795Z,99228.53
2018-05-10T00:59:53.560Z,99229.28
2018-05-10T01:02:21.525Z,99227.72
2018-05-10T01:04:49.350Z,99220.98
2018-05-10T01:07:17.055Z,99220.58
2018-05-10T01:09:44.822Z,99219.91
2018-05-10T01:12:12.686Z,99223.82
2018-05-10T01:14:40.349Z,99212.23
2018-05-10T01:17:08.113Z,99222.59
2018-05-10T01:19:35.882Z,99223.00
2018-05-10T01:22:04.659Z,99222.05
2018-05-10T01:24:32.429Z,99222.77
2018-05-10T01:27:00.092Z,99224.94
2018-05-10T01:29:27.748Z,99227.12
2018-05-10T01:31:55.416Z,99224.22
2018-05-10T01:34:23.083Z,99223.56
2018-05-10T01:36:50.944Z,99219.01
2018-05-10T01:39:18.605Z,99211.87
2018-05-10T01:41:46.267Z,99218.70
2018-05-10T01:44:13.931Z,99220.42
2018-05-10T01:46:41.695Z,99212.77
2018-05-10T01:49:09.465Z,99212.52
2018-05-10T01:51:37.226Z,99209.81
2018-05-10T01:54:04.886Z,99215.41
2018-05-10T01:56:32.547Z,99214.12
2018-05-10T01:59:00.312Z,99211.95
2018-05-10T02:01:28.180Z,99208.13
2018-05-10T02:03:55.841Z,99207.77
2018-05-10T02:06:23.503Z,99211.58
2018-05-10T02:08:51.225Z,99223.63
2018-05-10T02:11:19.033Z,99223.11
2018-05-10T02:13:46.698Z,99232.17
2018-05-10T02:16:14.460Z,99228.74
2018-05-10T02:18:42.226Z,99239.81
2018-05-10T02:21:09.989Z,99244.24
2018-05-10T02:23:37.753Z,99250.86
2018-05-10T02:26:05.517Z,99252.00
2018-05-10T02:28:33.275Z,99249.75
2018-05-10T02:31:00.944Z,99251.37
2018-05-10T02:33:28.811Z,99258.62
2018-05-10T02:35:56.540Z,99259.36
2018-05-10T02:38:24.236Z,99266.79
2018-05-10T02:40:52.004Z,99263.09
2018-05-10T02:43:19.766Z,99260.05
2018-05-10T02:45:47.531Z,99260.78
2018-05-10T02:48:15.401Z,99256.16
2018-05-10T02:50:43.162Z,99259.00
2018-05-10T02:53:10.909Z,99263.98
2018-05-10T02:55:38.645Z,99271.20
2018-05-10T02:58:06.354Z,99272.48
2018-05-10T03:00:34.017Z,99280.94
2018-05-10T03:03:01.679Z,99274.53
2018-05-10T03:05:29.388Z,99277.13
2018-05-10T03:07:57.105Z,99273.36
2018-05-10T03:10:24.767Z,99275.84
2018-05-10T03:12:52.532Z,99276.27
2018-05-10T03:15:20.254Z,99280.88
2018-05-10T03:17:48.060Z,99274.92
2018-05-10T03:20:15.824Z,99276.18
2018-05-10T03:22:43.589Z,99271.06
2018-05-10T03:25:11.253Z,99267.24
2018-05-10T03:27:39.016Z,99273.74
2018-05-10T03:30:06.730Z,99273.77
2018-05-10T03:32:34.546Z,99274.17
2018-05-10T03:35:02.315Z,99277.89
2018-05-10T03:37:30.182Z,99277.37
2018-05-10T03:39:57.838Z,99276.64
2018-05-10T03:42:25.605Z,99277.59
2018-05-10T03:44:53.305Z,99268.80
2018-05-10T03:47:21.132Z,99272.98
2018-05-10T03:49:48.989Z,99275.22
2018-05-10T03:52:16.763Z,99273.86
2018-05-10T03:54:44.528Z,99278.92
2018-05-10T03:57:12.391Z,99281.00
2018-05-10T03:59:40.157Z,99281.50
2018-05-10T04:02:07.872Z,99283.23
2018-05-10T04:04:47.362Z,99282.09
2018-05-10T04:07:27.108Z,99282.50
2018-05-10T04:10:06.855Z,99285.15
2018-05-10T04:12:35.539Z,99296.27
2018-05-10T04:15:03.254Z,99301.77
2018-05-10T04:17:31.073Z,99303.41
2018-05-10T04:19:58.834Z,99306.77
2018-05-10T04:22:26.598Z,99304.02
2018-05-10T04:24:54.464Z,99308.27
2018-05-10T04:27:22.117Z,99311.22
2018-05-10T04:29:49.893Z,99317.69
2018-05-10T04:32:17.655Z,99318.66
2018-05-10T04:34:45.522Z,99323.03
2018-05-10T04:37:13.287Z,99315.26
2018-05-10T04:39:41.154Z,99325.38
2018-05-10T04:42:08.914Z,99329.83
2018-05-10T04:44:36.580Z,99338.12
2018-05-10T04:47:04.349Z,99345.60
2018-05-10T04:49:32.167Z,99358.17
2018-05-10T04:51:59.978Z,99361.50
2018-05-10T04:54:27.849Z,99367.41
2018-05-10T04:56:55.610Z,99381.47
2018-05-10T04:59:23.474Z,99383.90
2018-05-10T05:01:51.200Z,99384.27
2018-05-10T05:04:18.901Z,99391.35
2018-05-10T05:06:46.665Z,99401.61
2018-05-10T05:09:14.474Z,99391.25
2018-05-10T05:11:42.089Z,99396.56
2018-05-10T05:14:09.908Z,99391.81
2018-05-10T05:16:37.724Z,99390.71
2018-05-10T05:19:05.540Z,99388.66
2018-05-10T05:21:33.332Z,99386.94
2018-05-10T05:24:01.119Z,99378.71
2018-05-10T05:26:29.702Z,99389.36
2018-05-10T05:28:57.411Z,99381.34
2018-05-10T05:31:25.149Z,99384.92
2018-05-10T05:33:52.793Z,99394.98
2018-05-10T05:36:20.556Z,99400.52
2018-05-10T05:38:48.274Z,99398.87
2018-05-10T05:41:16.196Z,99401.98
2018-05-10T05:43:43.739Z,99412.19
2018-05-10T05:46:11.511Z,99407.61
2018-05-10T05:48:39.277Z,99407.50
2018-05-10T05:51:07.166Z,99420.11
2018-05-10T05:53:34.898Z,99410.94
2018-05-10T05:56:02.774Z,99416.88
2018-05-10T05:58:30.529Z,99420.73
2018-05-10T06:00:58.317Z,99413.53
2018-05-10T06:03:26.274Z,99439.92
2018-05-10T06:05:54.140Z,99434.90
2018-05-10T06:08:21.904Z,99447.06
2018-05-10T06:10:49.616Z,99460.05
2018-05-10T06:13:17.381Z,99462.95
2018-05-10T06:15:45.243Z,99472.34
2018-05-10T06:18:12.914Z,99479.70
2018-05-10T06:20:40.730Z,99485.70
2018-05-10T06:23:08.592Z,99497.34
2018-05-10T06:25:36.358Z,99503.39
2018-05-10T06:28:04.282Z,99504.55
2018-05-10T06:30:31.989Z,99518.95
2018-05-10T06:32:59.815Z,99524.16
2018-05-10T06:35:27.620Z,99527.36
2018-05-10T06:37:55.286Z,99535.63
2018-05-10T06:40:22.989Z,99536.13
2018-05-10T06:42:50.709Z,99542.65
2018-05-10T06:45:18.430Z,99543.63
2018-05-10T06:47:46.190Z,99549.78
2018-05-10T06:50:14.005Z,99548.39
2018-05-10T06:52:41.767Z,99554.48
2018-05-10T06:55:09.776Z,99550.66
2018-05-10T06:57:37.603Z,99542.52
2018-05-10T07:00:05.369Z,99554.27
2018-05-10T07:02:33.030Z,99559.25
2018-05-10T07:05:00.756Z,99565.64
2018-05-10T07:07:28.567Z,99564.80
2018-05-10T07:09:56.418Z,99572.02
2018-05-10T07:12:23.891Z,99570.40
2018-05-10T07:14:51.651Z,99567.44
2018-05-10T07:17:19.418Z,99566.87
2018-05-10T07:19:47.280Z,99573.99
2018-05-10T07:22:15.148Z,99572.28
2018-05-10T07:24:43.018Z,99573.19
2018-05-10T07:27:10.731Z,99569.81
2018-05-10T07:29:38.543Z,99567.59
2018-05-10T07:32:06.308Z,99564.39
2018-05-10T07:34:34.031Z,99567.66
2018-05-10T07:37:01.797Z,99570.75
2018-05-10T07:39:29.601Z,99574.97
2018-05-10T07:41:57.281Z,99580.50
2018-05-10T07:44:25.988Z,99576.34
2018-05-10T07:46:53.819Z,99581.93
2018-05-10T07:49:21.686Z,99583.88
2018-05-10T07:51:49.449Z,99583.43
2018-05-10T07:54:17.417Z,99590.73
2018-05-10T07:56:45.079Z,99595.45
2018-05-10T07:59:12.945Z,99601.55
2018-05-10T08:01:40.663Z,99598.61
2018-05-10T08:04:08.373Z,99598.78
2018-05-10T08:06:36.098Z,99605.16
2018-05-10T08:09:04.005Z,99600.41
2018-05-10T08:11:32.279Z,99612.57
2018-05-10T08:14:00.149Z,99614.47
2018-05-10T08:16:28.006Z,99618.95
2018-05-10T08:18:55.831Z,99622.46
2018-05-10T08:21:38.447Z,99621.36
2018-05-10T08:24:06.259Z,99623.80
2018-05-10T08:26:33.865Z,99626.67
2018-05-10T08:29:01.585Z,99633.30
2018-05-10T08:31:29.266Z,99633.53
2018-05-10T08:33:56.911Z,99640.31
2018-05-10T08:36:24.877Z,99642.13
2018-05-10T08:38:52.638Z,99645.80
2018-05-10T08:41:20.353Z,99650.01
2018-05-10T08:43:48.375Z,99655.75
2018-05-10T08:46:16.138Z,99649.87
2018-05-10T08:48:43.802Z,99654.60
2018-05-10T08:51:11.411Z,99656.50
2018-05-10T08:53:39.091Z,99658.22
2018-05-10T08:56:06.701Z,99655.43
2018-05-10T08:58:34.350Z,99663.41
2018-05-10T09:01:01.990Z,99658.73
2018-05-10T09:03:29.634Z,99658.80
2018-05-10T09:05:57.256Z,99661.25
2018-05-10T09:08:24.991Z,99657.03
2018-05-10T09:10:52.659Z,99654.59
2018-05-10T09:13:20.420Z,99648.03
2018-05-10T09:15:48.137Z,99647.02
2018-05-10T09:18:15.905Z,99639.82
2018-05-10T09:20:43.714Z,99636.02
2018-05-10T09:23:11.377Z,99635.86
2018-05-10T09:25:39.142Z,99641.28
2018-05-10T09:28:06.803Z,99646.64
2018-05-10T09:30:34.570Z,99640.73
2018-05-10T09:33:02.436Z,99651.09
2018-05-10T09:35:30.148Z,99646.66
2018-05-10T09:37:57.964Z,99650.87
2018-05-10T09:40:25.616Z,99659.75
2018-05-10T09:42:53.397Z,99663.31
2018-05-10T09:45:21.117Z,99668.84
2018-05-10T09:47:48.924Z,99671.17
2018-05-10T09:50:16.570Z,99682.17
2018-05-10T09:52:44.302Z,99680.70
2018-05-10T09:55:12.055Z,99685.19
2018-05-10T09:57:39.876Z,99700.19
2018-05-10T10:00:07.640Z,99701.53
2018-05-10T10:02:35.381Z,99700.05
2018-05-10T10:05:03.058Z,99705.97
2018-05-10T10:07:30.913Z,99715.47
2018-05-10T10:09:58.700Z,99728.88
2018-05-10T10:12:26.361Z,99747.16
2018-05-10T10:14:54.227Z,99749.16
2018-05-10T10:17:22.595Z,99763.23
2018-05-10T10:19:50.247Z,99776.51
2018-05-10T10:22:17.852Z,99782.07
2018-05-10T10:24:45.583Z,99789.42
2018-05-10T10:27:13.183Z,99802.48
2018-05-10T10:29:41.019Z,99803.32
2018-05-10T10:32:08.732Z,99812.97
2018-05-10T10:34:36.445Z,99815.98
2018-05-10T10:37:04.112Z,99817.84
2018-05-10T10:39:31.931Z,99825.54
2018-05-10T10:41:59.740Z,99832.25
2018-05-10T10:44:27.463Z,99833.45
2018-05-10T10:46:55.160Z,99845.72
2018-05-10T10:49:22.930Z,99840.06
2018-05-10T10:51:50.544Z,99849.13
2018-05-10T10:54:18.409Z,99851.38
2018-05-10T10:56:46.227Z,99852.06
2018-05-10T10:59:13.992Z,99869.02
2018-05-10T11:01:41.782Z,99872.00
2018-05-10T11:04:09.621Z,99865.52
2018-05-10T11:06:37.342Z,99872.59
2018-05-10T11:09:05.213Z,99882.41
2018-05-10T11:11:33.015Z,99884.84
2018-05-10T11:14:00.886Z,99888.55
2018-05-10T11:16:28.648Z,99888.84
2018-05-10T11:18:56.295Z,99893.84
2018-05-10T11:21:23.903Z,99895.61
2018-05-10T11:23:51.549Z,99898.84
2018-05-10T11:26:19.158Z,99912.22
2018-05-10T11:28:46.802Z,99909.98
2018-05-10T11:31:14.415Z,99912.51
2018-05-10T11:33:42.172Z,99920.05
2018-05-10T11:36:09.811Z,99926.38
2018-05-10T11:38:37.607Z,99931.18
2018-05-10T11:41:05.373Z,99930.91
2018-05-10T11:43:33.241Z,99934.98
2018-05-10T11:46:01.003Z,99935.20
2018-05-10T11:48:28.665Z,99939.80
2018-05-10T11:50:56.315Z,99949.67
2018-05-10T11:53:24.031Z,99944.52
2018-05-10T11:55:51.749Z,99946.75
2018-05-10T11:58:19.347Z,99948.72
2018-05-10T12:00:46.994Z,99950.92
2018-05-10T12:03:14.596Z,99951.77
2018-05-10T12:05:42.250Z,99951.77
2018-05-10T12:08:09.861Z,99953.73
2018-05-10T12:10:37.511Z,99954.18
2018-05-10T12:13:05.297Z,99960.20
2018-05-10T12:15:33.151Z,99961.49
2018-05-10T12:18:00.754Z,99962.83
2018-05-10T12:20:28.433Z,99965.86
2018-05-10T12:22:56.037Z,99974.33
2018-05-10T12:25:23.685Z,99975.59
2018-05-10T12:27:51.295Z,99978.69
2018-05-10T12:30:18.942Z,99982.48
2018-05-10T12:32:46.556Z,99981.33
2018-05-10T12:35:14.202Z,99987.27
2018-05-10T12:37:41.812Z,99989.09
2018-05-10T12:40:09.465Z,99991.21
2018-05-10T12:42:37.074Z,100000.06
2018-05-10T12:45:04.790Z,99992.30
2018-05-10T12:47:32.391Z,100005.02
2018-05-10T12:50:00.032Z,100006.36
2018-05-10T12:52:27.675Z,100003.37
2018-05-10T12:54:55.326Z,100004.05
2018-05-10T12:57:22.950Z,100011.48
2018-05-10T12:59:50.603Z,100020.23
2018-05-10T13:02:18.224Z,100025.22
2018-05-10T13:04:45.881Z,100023.66
2018-05-10T13:07:13.511Z,100035.62
2018-05-10T13:09:41.158Z,100051.05
2018-05-10T13:12:08.970Z,100044.72
2018-05-10T13:14:36.783Z,100046.05
2018-05-10T13:17:04.602Z,100042.51
2018-05-10T13:19:32.355Z,100048.84
2018-05-10T13:21:59.920Z,100062.22
2018-05-10T13:24:27.575Z,100058.84
2018-05-10T13:26:55.188Z,100072.25
2018-05-10T13:29:22.861Z,100084.13
2018-05-10T13:31:50.553Z,100084.20
2018-05-10T13:34:18.207Z,100092.05
2018-05-10T13:36:45.814Z,100097.34
2018-05-10T13:39:13.475Z,100099.38
2018-05-10T13:41:41.077Z,100099.58
2018-05-10T13:44:08.731Z,100094.33
2018-05-10T13:46:36.344Z,100098.45
2018-05-10T13:49:04.008Z,100097.90
2018-05-10T13:51:31.623Z,100099.45
2018-05-10T13:53:59.235Z,100093.95
2018-05-10T13:56:26.895Z,100088.63
2018-05-10T13:58:54.543Z,100092.53
2018-05-10T14:01:22.182Z,100100.07
2018-05-10T14:03:49.796Z,100110.30
2018-05-10T14:06:18.263Z,100108.28
2018-05-10T14:08:45.871Z,100112.89
2018-05-10T14:11:13.597Z,100116.27
2018-05-10T14:13:41.202Z,100118.20
2018-05-10T14:16:08.855Z,100114.27
2018-05-10T14:18:36.467Z,100116.94
2018-05-10T14:21:04.114Z,100129.08
2018-05-10T14:23:31.994Z,100139.92
2018-05-10T14:25:59.645Z,100138.81
2018-05-10T14:28:27.261Z,100147.71
2018-05-10T14:30:54.924Z,100150.48
2018-05-10T14:33:22.532Z,100155.66
2018-05-10T14:35:50.183Z,100161.88
2018-05-10T14:38:17.791Z,100170.66
2018-05-10T14:40:45.439Z,100168.84
2018-05-10T14:43:13.044Z,100169.08
2018-05-10T14:45:40.744Z,100174.72
2018-05-10T14:48:08.375Z,100179.15
2018-05-10T14:50:36.027Z,100181.66
2018-05-10T14:53:03.636Z,100181.31
2018-05-10T14:55:31.284Z,100180.89
2018-05-10T14:57:58.902Z,100185.37
2018-05-10T15:00:26.631Z,100192.08
2018-05-10T15:02:54.266Z,100194.58
2018-05-10T15:05:21.941Z,100192.15
2018-05-10T15:07:49.693Z,100205.33
2018-05-10T15:10:17.339Z,100208.18
2018-05-10T15:12:44.945Z,100217.39
2018-05-10T15:15:12.595Z,100214.47
2018-05-10T15:17:40.250Z,100224.95
2018-05-10T15:20:08.117Z,100224.20
2018-05-10T15:22:35.727Z,100234.27
2018-05-10T15:25:03.427Z,100232.84
2018-05-10T15:27:31.071Z,100230.84
2018-05-10T15:29:58.724Z,100240.48
2018-05-10T15:32:26.398Z,100246.38
2018-05-10T15:34:54.043Z,100243.84
2018-05-10T15:37:21.696Z,100247.55
2018-05-10T15:39:49.349Z,100244.34
2018-05-10T15:42:16.957Z,100243.83
2018-05-10T15:44:44.610Z,100245.44
2018-05-10T15:47:12.251Z,100241.77
2018-05-10T15:49:40.007Z,100250.16
2018-05-10T15:52:07.614Z,100248.31
2018-05-10T15:54:35.268Z,100255.83
2018-05-10T15:57:02.884Z,100256.70
2018-05-10T15:59:30.567Z,100257.35
2018-05-10T16:01:58.190Z,100263.24
2018-05-10T16:04:25.796Z,100261.48
2018-05-10T16:06:53.449Z,100270.63
2018-05-10T16:09:21.155Z,100273.64
2018-05-10T16:11:48.800Z,100276.09
2018-05-10T16:14:16.419Z,100279.02
2018-05-10T16:16:44.066Z,100279.11
2018-05-10T16:19:11.673Z,100283.47
2018-05-10T16:21:39.313Z,100275.58
2018-05-10T16:24:06.926Z,100283.11
2018-05-10T16:26:34.566Z,100283.38
2018-05-10T16:29:02.183Z,100281.37
2018-05-10T16:31:29.829Z,100289.77
2018-05-10T16:33:57.430Z,100296.19
2018-05-10T16:36:25.130Z,100300.05
2018-05-10T16:38:52.894Z,100308.70
2018-05-10T16:41:20.550Z,100309.86
2018-05-10T16:43:48.180Z,100299.81
2018-05-10T16:46:15.870Z,100307.28
2018-05-10T16:48:43.480Z,100303.11
2018-05-10T16:51:11.128Z,100309.39
2018-05-10T16:53:38.735Z,100312.02
2018-05-10T16:56:06.374Z,100322.34
2018-05-10T16:58:33.984Z,100322.34
2018-05-10T17:01:01.647Z,100326.52
2018-05-10T17:03:29.311Z,100330.98
2018-05-10T17:05:56.959Z,100332.74
2018-05-10T17:08:24.581Z,100340.73
2018-05-10T17:10:52.239Z,100345.83
2018-05-10T17:13:19.862Z,100351.53
2018-05-10T17:15:47.507Z,100352.55
2018-05-10T17:18:15.133Z,100353.16
2018-05-10T17:20:42.814Z,100357.60
2018-05-10T17:23:10.425Z,100361.63
2018-05-10T17:25:38.079Z,100370.44
2018-05-10T17:28:05.727Z,100376.90
2018-05-10T17:30:33.378Z,100384.06
2018-05-10T17:33:00.987Z,100380.95
2018-05-10T17:35:28.687Z,100390.84
2018-05-10T17:37:56.303Z,100389.42
2018-05-10T17:40:23.954Z,100395.14
2018-05-10T17:42:51.711Z,100400.97
2018-05-10T17:45:19.364Z,100403.41
2018-05-10T17:47:47.162Z,100400.81
2018-05-10T17:50:14.865Z,100407.36
2018-05-10T17:52:42.472Z,100413.11
2018-05-10T17:55:10.178Z,100413.48
2018-05-10T17:57:37.760Z,100414.69
2018-05-10T18:00:05.411Z,100418.77
2018-05-10T18:02:33.022Z,100421.20
2018-05-10T18:05:00.630Z,100425.23
2018-05-10T18:07:28.371Z,100432.56
2018-05-10T18:09:56.095Z,100434.55
2018-05-10T18:12:23.895Z,100435.55
2018-05-10T18:14:51.602Z,100442.97
2018-05-10T18:17:19.661Z,100450.28
2018-05-10T18:19:47.393Z,100452.45
2018-05-10T18:22:15.043Z,100452.99
2018-05-10T18:24:42.681Z,100453.83
2018-05-10T18:27:10.394Z,100450.55
2018-05-10T18:29:38.120Z,100466.42
2018-05-10T18:32:06.071Z,100469.11
2018-05-10T18:34:33.675Z,100471.80
2018-05-10T18:37:01.355Z,100478.69
2018-05-10T18:39:29.116Z,100480.03
2018-05-10T18:41:56.763Z,100485.57
2018-05-10T18:44:24.475Z,100482.85
2018-05-10T18:46:52.124Z,100495.14
2018-05-10T18:49:19.747Z,100499.73
2018-05-10T18:51:47.391Z,100500.98
2018-05-10T18:54:15.393Z,100499.64
2018-05-10T18:56:43.304Z,100503.05
2018-05-10T18:59:10.907Z,100502.79
2018-05-10T19:01:38.557Z,100511.81
2018-05-10T19:04:06.161Z,100513.16
2018-05-10T19:06:34.039Z,100519.41
2018-05-10T19:09:02.211Z,100526.88
2018-05-10T19:11:30.194Z,100529.94
2018-05-10T19:13:57.962Z,100530.57
2018-05-10T19:16:25.614Z,100542.73
2018-05-10T19:18:53.269Z,100548.36
2018-05-10T19:27:19.626Z,100562.61
2018-05-10T19:29:47.292Z,100554.16
2018-05-10T19:32:15.054Z,100569.25
2018-05-10T19:34:42.822Z,100572.92
2018-05-10T19:37:10.726Z,100578.45
2018-05-10T19:39:38.343Z,100579.75
2018-05-10T19:42:06.222Z,100584.60
2018-05-10T19:44:33.981Z,100590.03
2018-05-10T19:47:01.758Z,100591.30
2018-05-10T19:49:29.613Z,100594.62
2018-05-10T19:51:57.477Z,100598.05
2018-05-10T19:54:25.427Z,100600.47
2018-05-10T19:56:53.452Z,100604.02
2018-05-10T19:59:21.080Z,100609.05
2018-05-10T20:01:48.845Z,100599.31
2018-05-10T20:04:16.555Z,100603.16
2018-05-10T20:06:44.274Z,100606.50
2018-05-10T20:09:11.934Z,100611.20
2018-05-10T20:11:39.800Z,100618.91
2018-05-10T20:14:07.471Z,100618.47
2018-05-10T20:16:35.385Z,100624.59
2018-05-10T20:19:03.099Z,100631.14
2018-05-10T20:21:30.970Z,100629.30
2018-05-10T20:23:58.731Z,100624.44
2018-05-10T20:26:26.512Z,100633.84
2018-05-10T20:28:54.153Z,100635.00
2018-05-10T20:31:21.871Z,100638.37
2018-05-10T20:33:49.591Z,100640.89
2018-05-10T20:36:17.452Z,100645.11
2018-05-10T20:38:45.110Z,100644.06
2018-05-10T20:41:12.787Z,100643.61
2018-05-10T20:43:40.435Z,100653.30
2018-05-10T20:46:08.238Z,100649.52
2018-05-10T20:48:35.961Z,100649.55
2018-05-10T20:51:03.725Z,100654.29
2018-05-10T20:53:31.388Z,100657.09
2018-05-10T20:55:59.155Z,100664.71
2018-05-10T20:58:26.815Z,100672.70
2018-05-10T21:00:54.583Z,100670.91
2018-05-10T21:03:22.553Z,100671.41
2018-05-10T21:05:50.418Z,100672.09
2018-05-10T21:08:18.284Z,100673.59
2018-05-10T21:10:47.185Z,100678.48
2018-05-10T21:13:15.081Z,100678.10
2018-05-10T21:15:42.690Z,100671.39
2018-05-10T21:18:10.467Z,100679.09
2018-05-10T21:20:38.071Z,100683.53
2018-05-10T21:23:05.929Z,100683.81
2018-05-10T21:25:33.555Z,100683.84
2018-05-10T21:28:01.320Z,100681.44
2018-05-10T21:30:28.974Z,100688.09
2018-05-10T21:32:56.746Z,100693.77
2018-05-10T21:35:24.512Z,100696.36
2018-05-10T21:37:52.222Z,100696.02
2018-05-10T21:40:20.038Z,100695.94
2018-05-10T21:42:47.927Z,100694.76
2018-05-10T21:45:15.674Z,100696.24
2018-05-10T21:47:43.433Z,100702.84
2018-05-10T21:50:11.200Z,100701.04
2018-05-10T21:52:39.067Z,100707.44
2018-05-10T21:55:06.741Z,100692.28
2018-05-10T21:57:34.494Z,100700.03
2018-05-10T22:00:02.257Z,100706.62
2018-05-10T22:02:30.023Z,100705.02
2018-05-10T22:04:57.791Z,100707.81
2018-05-10T22:07:25.551Z,100712.71
2018-05-10T22:09:53.316Z,100713.36
2018-05-10T22:12:20.977Z,100715.23
2018-05-10T22:14:48.743Z,100717.65
2018-05-10T22:17:16.515Z,100714.50
2018-05-10T22:19:44.374Z,100711.75
2018-05-10T22:22:12.138Z,100722.74
2018-05-10T22:24:39.858Z,100714.95
2018-05-10T22:27:07.558Z,100720.09
2018-05-10T22:29:35.273Z,100717.63
2018-05-10T22:32:03.087Z,100719.66
2018-05-10T22:34:30.752Z,100720.09
2018-05-10T22:36:58.421Z,100714.19
2018-05-10T22:39:26.078Z,100718.27
2018-05-10T22:41:54.561Z,100722.84
2018-05-10T22:44:22.334Z,100720.88
2018-05-10T22:46:50.138Z,100721.25
2018-05-10T22:49:17.876Z,100720.02
2018-05-10T22:51:45.725Z,100726.30
2018-05-10T22:54:13.494Z,100727.19
2018-05-10T22:56:41.246Z,100729.25
2018-05-10T22:59:09.018Z,100724.73
2018-05-10T23:01:36.881Z,100720.81
2018-05-10T23:04:05.261Z,100723.34
2018-05-10T23:06:33.128Z,100723.55
2018-05-10T23:09:00.850Z,100719.33
2018-05-10T23:11:28.604Z,100724.47
2018-05-10T23:13:56.422Z,100722.70
2018-05-10T23:16:24.245Z,100725.17
2018-05-10T23:18:51.950Z,100729.79
2018-05-10T23:21:19.718Z,100733.44
2018-05-10T23:23:47.717Z,100727.62
2018-05-10T23:26:15.450Z,100725.41
2018-05-10T23:28:43.316Z,100727.88
2018-05-10T23:31:11.038Z,100726.95
2018-05-10T23:33:38.743Z,100725.54
2018-05-10T23:36:06.608Z,100730.34
2018-05-10T23:38:34.374Z,100728.71
2018-05-10T23:41:02.141Z,100733.77
2018-05-10T23:43:29.901Z,100730.59
2018-05-10T23:45:57.668Z,100726.42
2018-05-10T23:48:25.526Z,100720.14
2018-05-10T23:50:53.247Z,100720.72
2018-05-10T23:53:20.955Z,100727.82
2018-05-10T23:55:48.727Z,100719.45
2018-05-10T23:58:16.596Z,100721.15
